createdAt,value
2023-03-27T02:24:55.872Z,1.41
2023-03-27T02:29:59.606Z,1.40
2023-03-27T02:35:12.880Z,2.48
2023-03-27T02:40:23.888Z,2.42
2023-03-27T02:45:56.584Z,1.29
2023-03-27T02:51:22.630Z,1.34
2023-03-27T02:56:16.682Z,1.50
2023-03-27T03:01:13.731Z,0.58
2023-03-27T03:06:31.895Z,1.16
2023-03-27T03:11:24.518Z,0.12
2023-03-27T03:16:16.548Z,2.19
2023-03-27T03:21:10.581Z,1.11
2023-03-27T03:26:03.617Z,0.20
2023-03-27T03:31:10.879Z,0.74
2023-03-27T03:36:04.212Z,0.30
2023-03-27T03:40:59.902Z,-0.34
2023-03-27T03:45:52.881Z,1.48
2023-03-27T03:50:46.605Z,1.70
2023-03-27T03:55:38.874Z,0.53
2023-03-27T04:00:32.108Z,0.43
2023-03-27T04:05:24.726Z,0.80
2023-03-27T04:10:19.238Z,-1.01
2023-03-27T04:15:12.366Z,1.85
2023-03-27T04:20:26.576Z,0.89
2023-03-27T04:25:24.679Z,1.17
2023-03-27T04:30:22.592Z,-0.07
2023-03-27T04:36:07.162Z,1.26
2023-03-27T04:41:21.556Z,-0.21
2023-03-27T04:46:14.092Z,1.12
2023-03-27T04:51:09.611Z,1.75
2023-03-27T04:56:02.084Z,0.45
2023-03-27T05:00:58.321Z,-0.32
2023-03-27T05:06:25.995Z,-1.71
2023-03-27T05:11:18.443Z,0.01
2023-03-27T05:16:10.798Z,0.29
2023-03-27T05:21:08.946Z,1.79
2023-03-27T05:26:01.164Z,0.19
2023-03-27T05:31:12.961Z,0.65
2023-03-27T05:36:31.951Z,1.04
2023-03-27T05:41:25.297Z,1.61
2023-03-27T05:46:20.570Z,1.61
2023-03-27T05:51:22.948Z,2.40
2023-03-27T05:56:14.957Z,2.67
2023-03-27T06:01:27.972Z,3.20
2023-03-27T06:06:22.495Z,3.07
2023-03-27T06:11:20.969Z,4.07
2023-03-27T06:16:15.019Z,2.93
2023-03-27T06:21:16.370Z,3.04
2023-03-27T06:26:08.504Z,5.42
2023-03-27T06:31:00.356Z,4.45
2023-03-27T06:36:01.419Z,5.34
2023-03-27T06:41:00.117Z,3.85
2023-03-27T06:46:11.716Z,5.20
2023-03-27T06:51:32.688Z,7.90
2023-03-27T06:56:24.438Z,5.86
2023-03-27T07:01:34.962Z,7.35
2023-03-27T07:06:48.935Z,9.42
2023-03-27T07:11:41.612Z,12.01
2023-03-27T07:16:34.669Z,12.81
2023-03-27T07:21:26.613Z,11.51
2023-03-27T07:26:22.105Z,10.39
2023-03-27T07:31:37.330Z,8.94
2023-03-27T07:36:37.677Z,9.94
2023-03-27T07:41:32.378Z,12.22
2023-03-27T07:46:24.409Z,12.55
2023-03-27T07:51:17.735Z,13.44
2023-03-27T07:56:11.007Z,15.22
2023-03-27T08:01:04.868Z,17.45
2023-03-27T08:05:59.879Z,18.16
2023-03-27T08:10:54.925Z,18.27
2023-03-27T08:15:46.798Z,18.33
2023-03-27T08:20:49.753Z,14.87
2023-03-27T08:25:42.806Z,14.80
2023-03-27T08:30:35.495Z,16.92
2023-03-27T08:35:27.835Z,16.98
2023-03-27T08:40:26.421Z,12.71
2023-03-27T08:45:49.770Z,14.85
2023-03-27T08:51:00.214Z,12.69
2023-03-27T08:55:52.423Z,10.36
2023-03-27T09:01:04.723Z,10.60
2023-03-27T09:06:02.930Z,8.08
2023-03-27T09:11:10.858Z,8.91
2023-03-27T09:16:20.315Z,9.16
2023-03-27T09:21:31.339Z,10.99
2023-03-27T09:26:36.038Z,9.86
2023-03-27T09:31:34.378Z,13.09
2023-03-27T09:36:29.695Z,12.52
2023-03-27T09:41:35.691Z,12.53
2023-03-27T09:46:29.131Z,10.02
2023-03-27T09:51:49.503Z,12.21
2023-03-27T09:57:12.593Z,8.94
2023-03-27T10:02:26.092Z,10.29
2023-03-27T10:07:26.822Z,9.73
2023-03-27T10:12:35.281Z,8.77
2023-03-27T10:17:35.513Z,10.26
2023-03-27T10:22:39.159Z,8.90
2023-03-27T10:27:34.130Z,11.04
2023-03-27T10:32:47.251Z,9.39
2023-03-27T10:37:58.500Z,9.74
2023-03-27T10:43:49.419Z,10.47
2023-03-27T10:48:47.774Z,9.98
2023-03-27T10:53:52.350Z,8.84
2023-03-27T10:59:08.663Z,9.67
2023-03-27T11:04:15.366Z,7.29
2023-03-27T11:09:29.494Z,9.24
2023-03-27T11:14:51.067Z,10.18
2023-03-27T11:20:00.387Z,9.28
2023-03-27T11:25:07.433Z,10.70
2023-03-27T11:30:03.187Z,10.94
2023-03-27T11:35:13.745Z,10.02
2023-03-27T11:40:20.165Z,9.99
2023-03-27T11:45:21.513Z,11.09
2023-03-27T11:50:29.183Z,11.90
2023-03-27T11:55:33.554Z,11.58
2023-03-27T12:00:36.496Z,9.51
2023-03-27T12:05:57.621Z,7.93
2023-03-27T12:10:59.108Z,5.70
2023-03-27T12:16:11.195Z,5.88
2023-03-27T12:21:21.513Z,5.88
2023-03-27T12:26:30.258Z,6.87
2023-03-27T12:32:31.345Z,6.72
2023-03-27T12:37:30.939Z,6.14
2023-03-27T12:42:48.973Z,8.77
2023-03-27T12:47:46.005Z,6.28
2023-03-27T12:52:38.696Z,6.28
2023-03-27T12:57:44.199Z,8.35
2023-03-27T13:03:13.870Z,9.73
2023-03-27T13:08:13.350Z,10.46
2023-03-27T13:13:46.964Z,10.18
2023-03-27T13:19:03.614Z,9.93
2023-03-27T13:24:15.406Z,10.27
2023-03-27T13:29:26.418Z,7.47
2023-03-27T13:34:26.999Z,9.35
2023-03-27T13:39:24.869Z,9.12
2023-03-27T13:44:43.222Z,8.40
2023-03-27T13:50:03.418Z,9.00
2023-03-27T13:55:05.233Z,9.69
2023-03-27T14:00:36.886Z,8.98
2023-03-27T14:06:00.122Z,9.10
2023-03-27T14:11:23.680Z,9.10
2023-03-27T14:16:28.000Z,9.61
2023-03-27T14:21:38.480Z,6.67
2023-03-27T14:26:35.055Z,6.41
2023-03-27T14:31:28.977Z,6.33
2023-03-27T14:36:33.816Z,5.29
2023-03-27T14:41:32.638Z,7.08
2023-03-27T14:46:27.741Z,7.18
2023-03-27T14:51:33.942Z,7.39
2023-03-27T14:56:38.252Z,3.75
2023-03-27T15:02:19.926Z,5.18
2023-03-27T15:07:19.876Z,7.99
2023-03-27T15:12:35.082Z,6.32
2023-03-27T15:17:30.529Z,5.05
2023-03-27T15:22:35.320Z,7.39
2023-03-27T15:27:38.261Z,7.62
2023-03-27T15:32:42.669Z,7.40
2023-03-27T15:37:34.981Z,3.51
2023-03-27T15:42:43.924Z,6.01
2023-03-27T15:47:36.391Z,4.81
2023-03-27T15:52:33.446Z,2.89
2023-03-27T15:57:26.919Z,4.72
2023-03-27T16:02:19.339Z,4.25
2023-03-27T16:07:19.696Z,3.69
2023-03-27T16:12:12.434Z,6.93
2023-03-27T16:17:12.210Z,6.63
2023-03-27T16:22:03.939Z,6.92
2023-03-27T16:26:56.260Z,6.10
2023-03-27T16:31:48.118Z,6.00
2023-03-27T16:36:40.135Z,7.07
2023-03-27T16:41:32.154Z,6.53
2023-03-27T16:46:29.509Z,4.61
2023-03-27T16:51:24.013Z,4.73
2023-03-27T16:56:16.053Z,5.37
2023-03-27T17:01:09.120Z,5.60
2023-03-27T17:06:02.511Z,4.18
2023-03-27T17:10:54.312Z,4.12
2023-03-27T17:15:50.529Z,6.11
2023-03-27T17:20:42.244Z,4.62
2023-03-27T17:25:34.018Z,2.87
2023-03-27T17:30:37.318Z,4.01
2023-03-27T17:35:33.067Z,4.87
2023-03-27T17:40:24.768Z,5.63
2023-03-27T17:45:16.645Z,2.76
2023-03-27T17:50:08.836Z,3.63
2023-03-27T17:55:00.696Z,3.04
2023-03-27T17:59:52.605Z,4.09
2023-03-27T18:04:44.608Z,2.86
2023-03-27T18:09:36.725Z,3.18
2023-03-27T18:14:28.710Z,3.76
2023-03-27T18:19:20.436Z,3.71
2023-03-27T18:24:12.354Z,4.69
2023-03-27T18:29:05.053Z,4.36
2023-03-27T18:33:56.911Z,4.02
2023-03-27T18:38:50.099Z,2.63
2023-03-27T18:43:41.959Z,2.71
2023-03-27T18:48:34.492Z,1.94
2023-03-27T18:53:26.477Z,2.44
2023-03-27T18:58:19.061Z,2.28
2023-03-27T19:03:20.061Z,1.98
2023-03-27T19:08:12.810Z,4.22
2023-03-27T19:13:05.179Z,3.40
2023-03-27T19:18:16.149Z,2.70
2023-03-27T19:23:27.899Z,2.31
2023-03-27T19:28:19.930Z,1.43
2023-03-27T19:33:12.793Z,1.42
2023-03-27T19:38:04.728Z,2.63
2023-03-27T19:42:56.421Z,1.60
2023-03-27T19:47:48.220Z,1.57
2023-03-27T19:52:40.037Z,1.84
2023-03-27T19:57:31.793Z,1.39
2023-03-27T20:02:23.584Z,2.56
2023-03-27T20:07:16.117Z,2.50
2023-03-27T20:12:07.893Z,-0.51
2023-03-27T20:16:59.797Z,2.26
2023-03-27T20:21:53.150Z,3.25
2023-03-27T20:26:48.325Z,0.29
2023-03-27T20:31:48.069Z,1.02
2023-03-27T20:36:39.897Z,2.38
2023-03-27T20:41:48.077Z,2.71
2023-03-27T20:46:41.831Z,3.14
2023-03-27T20:51:33.697Z,1.88
2023-03-27T20:56:25.704Z,1.22
2023-03-27T21:01:27.862Z,3.07
2023-03-27T21:06:20.609Z,2.17
2023-03-27T21:11:13.440Z,1.00
2023-03-27T21:16:06.081Z,0.51
2023-03-27T21:20:57.941Z,1.66
2023-03-27T21:25:51.725Z,0.25
2023-03-27T21:30:46.322Z,2.82
2023-03-27T21:35:41.430Z,0.91
2023-03-27T21:40:34.011Z,2.70
2023-03-27T21:45:25.839Z,1.17
2023-03-27T21:50:17.829Z,2.03
2023-03-27T21:55:10.414Z,0.22
2023-03-27T22:00:02.548Z,1.69
2023-03-27T22:05:04.820Z,1.55
2023-03-27T22:09:56.615Z,1.34
2023-03-27T22:14:48.586Z,1.77
2023-03-27T22:19:40.930Z,0.58
2023-03-27T22:24:32.951Z,1.27
2023-03-27T22:29:24.860Z,-0.89
2023-03-27T22:34:17.260Z,-0.71
2023-03-27T22:39:09.813Z,-0.59
2023-03-27T22:44:02.296Z,1.14
2023-03-27T22:48:56.250Z,1.00
2023-03-27T22:53:50.672Z,2.20
2023-03-27T22:58:42.894Z,2.14
2023-03-27T23:03:35.000Z,0.65
2023-03-27T23:08:28.479Z,1.46
2023-03-27T23:13:20.460Z,0.08
2023-03-27T23:18:12.445Z,1.06
2023-03-27T23:23:04.530Z,0.21
2023-03-27T23:27:56.787Z,0.32
2023-03-27T23:32:49.039Z,-0.86
2023-03-27T23:37:41.082Z,0.58
2023-03-27T23:42:33.655Z,-0.22
2023-03-27T23:47:26.068Z,0.03
2023-03-27T23:52:18.934Z,-1.59
2023-03-27T23:57:11.702Z,0.44
